createdAt,value
2022-12-19T00:00:20.580Z,18.73
2022-12-19T00:03:08.578Z,18.93
2022-12-19T00:05:57.174Z,23.10
2022-12-19T00:08:46.969Z,17.67
2022-12-19T00:11:36.213Z,19.07
2022-12-19T00:14:24.115Z,25.43
2022-12-19T00:17:12.611Z,19.10
2022-12-19T00:20:00.584Z,18.07
2022-12-19T00:22:48.524Z,21.47
2022-12-19T00:25:40.116Z,22.10
2022-12-19T00:28:32.361Z,20.50
2022-12-19T00:31:21.965Z,22.67
2022-12-19T00:34:10.158Z,23.90
2022-12-19T00:37:00.156Z,21.97
2022-12-19T00:39:49.771Z,20.70
2022-12-19T00:42:37.786Z,23.43
2022-12-19T00:45:27.808Z,21.73
2022-12-19T00:48:17.995Z,22.87
2022-12-19T00:51:10.938Z,23.33
2022-12-19T00:53:59.537Z,22.40
2022-12-19T00:56:47.713Z,23.87
2022-12-19T00:59:35.718Z,21.37
2022-12-19T01:02:25.499Z,24.83
2022-12-19T01:05:14.989Z,27.40
2022-12-19T01:08:02.958Z,23.87
2022-12-19T01:10:51.768Z,23.20
2022-12-19T01:13:39.822Z,25.77
2022-12-19T01:16:30.229Z,25.30
2022-12-19T01:19:21.142Z,25.17
2022-12-19T01:22:09.125Z,22.97
2022-12-19T01:24:57.524Z,25.80
2022-12-19T01:27:45.462Z,22.93
2022-12-19T01:30:33.942Z,23.50
2022-12-19T01:33:25.925Z,24.37
2022-12-19T01:36:16.371Z,24.63
2022-12-19T01:39:04.401Z,24.97
2022-12-19T01:41:52.383Z,21.60
2022-12-19T01:44:40.363Z,23.10
2022-12-19T01:47:29.064Z,24.33
2022-12-19T01:50:22.144Z,22.27
2022-12-19T01:53:15.184Z,22.97
2022-12-19T01:56:09.763Z,21.33
2022-12-19T01:59:06.311Z,21.53
2022-12-19T02:02:04.809Z,24.70
2022-12-19T02:04:52.835Z,22.43
2022-12-19T02:07:43.161Z,24.50
2022-12-19T02:10:32.473Z,25.63
2022-12-19T02:13:21.540Z,22.30
2022-12-19T02:16:21.143Z,28.33
2022-12-19T02:19:54.950Z,24.67
2022-12-19T02:23:01.878Z,23.37
2022-12-19T02:26:08.650Z,21.77
2022-12-19T02:29:25.689Z,23.23
2022-12-19T02:32:20.839Z,22.43
2022-12-19T02:35:16.063Z,22.20
2022-12-19T02:38:13.735Z,25.97
2022-12-19T02:41:07.611Z,25.73
2022-12-19T02:43:58.995Z,27.63
2022-12-19T02:46:51.198Z,23.60
2022-12-19T02:49:40.701Z,26.30
2022-12-19T02:52:46.851Z,22.60
2022-12-19T02:55:43.255Z,24.40
2022-12-19T02:58:49.453Z,29.20
2022-12-19T03:01:46.019Z,20.43
2022-12-19T03:04:46.087Z,26.70
2022-12-19T03:07:38.357Z,25.83
2022-12-19T03:10:33.939Z,28.13
2022-12-19T03:13:27.048Z,26.37
2022-12-19T03:16:15.931Z,26.50
2022-12-19T03:19:06.240Z,26.67
2022-12-19T03:21:55.824Z,27.40
2022-12-19T03:24:43.948Z,28.17
2022-12-19T03:27:35.847Z,26.63
2022-12-19T03:30:24.281Z,27.40
2022-12-19T03:33:14.634Z,27.57
2022-12-19T03:36:07.654Z,29.57
2022-12-19T03:38:58.828Z,23.83
2022-12-19T03:42:04.877Z,29.10
2022-12-19T03:44:56.486Z,25.53
2022-12-19T03:47:49.574Z,28.33
2022-12-19T03:50:47.740Z,31.97
2022-12-19T03:53:46.167Z,28.23
2022-12-19T03:56:42.295Z,26.87
2022-12-19T03:59:36.018Z,23.13
2022-12-19T04:02:25.228Z,25.00
2022-12-19T04:05:18.039Z,29.37
2022-12-19T04:08:09.351Z,26.63
2022-12-19T04:11:02.571Z,25.67
2022-12-19T04:13:57.141Z,30.37
2022-12-19T04:16:49.056Z,28.60
2022-12-19T04:19:43.777Z,31.40
2022-12-19T04:22:36.644Z,27.70
2022-12-19T04:25:30.144Z,24.17
2022-12-19T04:28:21.431Z,23.40
2022-12-19T04:31:14.643Z,29.90
2022-12-19T04:34:02.652Z,27.93
2022-12-19T04:36:51.693Z,27.90
2022-12-19T04:39:39.732Z,25.93
2022-12-19T04:42:27.710Z,33.20
2022-12-19T04:45:18.294Z,28.40
2022-12-19T04:48:08.941Z,27.07
2022-12-19T04:50:57.357Z,25.70
2022-12-19T04:53:45.445Z,25.97
2022-12-19T04:56:33.386Z,30.13
2022-12-19T04:59:21.365Z,31.63
2022-12-19T05:02:09.463Z,33.57
2022-12-19T05:04:58.848Z,31.70
2022-12-19T05:07:48.054Z,29.33
2022-12-19T05:10:37.513Z,33.37
2022-12-19T05:13:25.465Z,33.33
2022-12-19T05:16:15.005Z,40.57
2022-12-19T05:19:03.049Z,32.07
2022-12-19T05:21:52.312Z,38.17
2022-12-19T05:24:40.277Z,36.53
2022-12-19T05:27:28.227Z,33.97
2022-12-19T05:30:16.240Z,34.53
2022-12-19T05:33:04.485Z,33.00
2022-12-19T05:35:52.478Z,37.10
2022-12-19T05:38:42.396Z,37.13
2022-12-19T05:41:30.339Z,36.80
2022-12-19T05:44:18.319Z,38.07
2022-12-19T05:47:06.373Z,44.93
2022-12-19T05:49:54.340Z,37.40
2022-12-19T05:52:42.387Z,39.10
2022-12-19T05:55:31.854Z,44.10
2022-12-19T05:58:19.808Z,39.83
2022-12-19T06:01:09.608Z,42.83
2022-12-19T06:03:57.614Z,38.23
2022-12-19T06:06:45.609Z,39.77
2022-12-19T06:09:33.657Z,35.60
2022-12-19T06:12:23.133Z,41.73
2022-12-19T06:15:12.164Z,44.23
2022-12-19T06:18:00.113Z,38.20
2022-12-19T06:20:57.321Z,50.37
2022-12-19T06:23:46.215Z,42.63
2022-12-19T06:26:34.212Z,44.83
2022-12-19T06:29:23.742Z,43.70
2022-12-19T06:32:12.715Z,50.23
2022-12-19T06:35:04.770Z,43.33
2022-12-19T06:37:57.887Z,45.80
2022-12-19T06:41:06.592Z,39.20
2022-12-19T06:43:54.538Z,39.40
2022-12-19T06:46:44.260Z,36.23
2022-12-19T06:49:32.312Z,40.27
2022-12-19T06:52:20.356Z,40.37
2022-12-19T06:55:09.178Z,40.90
2022-12-19T06:57:57.139Z,43.80
2022-12-19T07:00:45.575Z,44.90
2022-12-19T07:03:38.872Z,45.83
2022-12-19T07:06:07.722Z,45.27
2022-12-19T07:08:35.361Z,44.27
2022-12-19T07:11:03.050Z,49.80
2022-12-19T07:13:30.915Z,49.30
2022-12-19T07:16:03.618Z,50.47
2022-12-19T07:18:34.143Z,50.20
2022-12-19T07:21:03.459Z,50.90
2022-12-19T07:23:31.322Z,49.83
2022-12-19T07:25:59.272Z,48.00
2022-12-19T07:28:27.088Z,53.73
2022-12-19T07:30:54.735Z,47.53
2022-12-19T07:33:22.406Z,46.17
2022-12-19T07:35:50.086Z,51.17
2022-12-19T07:38:19.250Z,53.77
2022-12-19T07:40:46.913Z,58.17
2022-12-19T07:43:14.555Z,47.37
2022-12-19T07:45:43.681Z,56.80
2022-12-19T07:48:11.352Z,48.93
2022-12-19T07:50:39.051Z,55.83
2022-12-19T07:53:06.681Z,53.03
2022-12-19T07:55:35.759Z,51.87
2022-12-19T07:58:03.844Z,51.93
2022-12-19T08:00:31.681Z,48.87
2022-12-19T08:02:59.559Z,54.70
2022-12-19T08:05:27.383Z,58.43
2022-12-19T08:07:55.508Z,54.00
2022-12-19T08:10:23.563Z,55.83
2022-12-19T08:12:52.986Z,48.87
2022-12-19T08:15:20.695Z,59.00
2022-12-19T08:17:48.398Z,55.60
2022-12-19T08:20:16.158Z,58.73
2022-12-19T08:22:43.833Z,58.87
2022-12-19T08:25:11.625Z,64.67
2022-12-19T08:27:39.660Z,60.83
2022-12-19T08:30:11.825Z,60.47
2022-12-19T08:32:39.977Z,63.37
2022-12-19T08:35:08.980Z,61.93
2022-12-19T08:37:37.007Z,70.60
2022-12-19T08:40:05.275Z,70.47
2022-12-19T08:42:33.489Z,76.27
2022-12-19T08:45:01.257Z,74.93
2022-12-19T08:47:30.244Z,71.63
2022-12-19T08:49:58.056Z,77.63
2022-12-19T08:52:25.804Z,80.43
2022-12-19T08:54:53.490Z,74.90
2022-12-19T08:57:21.137Z,72.20
2022-12-19T08:59:48.737Z,77.80
2022-12-19T09:02:17.466Z,76.93
2022-12-19T09:06:03.902Z,85.53
2022-12-19T09:07:38.890Z,83.10
2022-12-19T09:10:08.258Z,74.77
2022-12-19T09:12:35.914Z,80.93
2022-12-19T09:15:03.666Z,92.27
2022-12-19T09:17:31.340Z,88.27
2022-12-19T09:20:00.987Z,97.10
2022-12-19T09:22:29.538Z,80.87
2022-12-19T09:24:57.479Z,98.67
2022-12-19T09:27:25.436Z,103.53
2022-12-19T09:29:53.244Z,97.97
2022-12-19T09:32:20.873Z,99.20
2022-12-19T09:34:48.592Z,94.63
2022-12-19T09:37:18.093Z,95.63
2022-12-19T09:39:47.139Z,102.60
2022-12-19T09:42:31.825Z,104.60
2022-12-19T09:45:35.994Z,96.73
2022-12-19T09:48:05.790Z,92.30
2022-12-19T09:50:46.188Z,95.57
2022-12-19T09:53:21.996Z,97.53
2022-12-19T09:55:54.063Z,96.10
2022-12-19T09:58:32.701Z,97.70
2022-12-19T10:01:06.877Z,97.63
2022-12-19T10:03:40.485Z,108.07
2022-12-19T10:07:11.196Z,101.73
2022-12-19T10:11:34.774Z,95.97
2022-12-19T10:12:45.956Z,98.13
2022-12-19T10:15:17.695Z,91.30
2022-12-19T10:18:12.051Z,105.87
2022-12-19T10:20:43.260Z,91.30
2022-12-19T10:23:29.145Z,107.60
2022-12-19T10:26:01.390Z,109.13
2022-12-19T10:28:52.994Z,104.23
2022-12-19T10:31:25.671Z,109.63
2022-12-19T10:33:58.835Z,111.77
2022-12-19T10:36:55.946Z,121.53
2022-12-19T10:39:23.432Z,119.07
2022-12-19T10:41:57.410Z,127.67
2022-12-19T10:44:29.125Z,139.57
2022-12-19T10:46:57.082Z,141.70
2022-12-19T10:49:27.821Z,132.57
2022-12-19T10:52:00.080Z,131.60
2022-12-19T10:54:39.401Z,123.80
2022-12-19T10:57:25.414Z,116.90
2022-12-19T10:59:58.600Z,127.27
2022-12-19T11:02:42.326Z,120.70
2022-12-19T11:05:25.082Z,118.90
2022-12-19T11:08:04.276Z,128.00
2022-12-19T11:11:47.808Z,123.30
2022-12-19T11:18:38.896Z,126.27
2022-12-19T11:19:28.388Z,124.70
2022-12-19T11:29:27.014Z,130.50
2022-12-19T11:29:37.048Z,122.77
2022-12-19T11:30:35.805Z,115.13
2022-12-19T11:30:45.727Z,116.47
2022-12-19T11:32:14.217Z,116.07
2022-12-19T11:33:56.133Z,108.43
2022-12-19T11:36:33.103Z,126.57
2022-12-19T11:39:01.261Z,115.73
2022-12-19T11:41:39.796Z,127.53
2022-12-19T11:44:12.642Z,116.40
2022-12-19T11:46:46.454Z,129.30
2022-12-19T11:49:24.307Z,123.03
2022-12-19T11:52:29.586Z,123.97
2022-12-19T11:55:02.983Z,110.33
2022-12-19T11:57:30.680Z,118.27
2022-12-19T12:00:04.717Z,127.47
2022-12-19T12:03:06.084Z,116.33
2022-12-19T12:05:44.095Z,118.87
2022-12-19T12:10:09.386Z,125.70
2022-12-19T12:14:31.695Z,124.87
2022-12-19T12:23:31.098Z,116.43
2022-12-19T12:29:37.981Z,112.10
2022-12-19T12:31:12.695Z,118.60
2022-12-19T12:31:47.315Z,135.40
2022-12-19T12:32:05.262Z,127.33
2022-12-19T12:32:06.312Z,123.10
2022-12-19T12:35:40.930Z,121.80
2022-12-19T12:38:40.099Z,138.87
2022-12-19T12:41:20.272Z,138.03
2022-12-19T12:44:01.526Z,144.30
2022-12-19T12:46:39.240Z,141.43
2022-12-19T12:49:13.189Z,162.20
2022-12-19T12:51:41.959Z,148.10
2022-12-19T12:54:14.967Z,171.17
2022-12-19T12:56:43.753Z,153.50
2022-12-19T12:59:22.411Z,149.80
2022-12-19T13:01:54.322Z,166.80
2022-12-19T13:04:42.094Z,154.50
2022-12-19T13:07:19.792Z,153.93
2022-12-19T13:09:54.083Z,149.83
2022-12-19T13:12:43.935Z,155.97
2022-12-19T13:15:34.370Z,157.67
2022-12-19T13:18:12.876Z,135.73
2022-12-19T13:20:46.672Z,143.50
2022-12-19T13:23:56.984Z,146.80
2022-12-19T13:26:49.429Z,126.60
2022-12-19T13:29:54.785Z,126.13
2022-12-19T13:32:23.769Z,128.03
2022-12-19T13:35:04.010Z,137.03
2022-12-19T13:40:00.091Z,137.53
2022-12-19T13:40:51.723Z,148.57
2022-12-19T13:43:42.641Z,135.13
2022-12-19T13:46:24.893Z,127.57
2022-12-19T13:48:56.590Z,127.13
2022-12-19T13:51:24.302Z,128.00
2022-12-19T13:53:59.534Z,127.53
2022-12-19T13:56:31.618Z,132.77
2022-12-19T13:59:03.575Z,128.77
2022-12-19T14:01:33.749Z,134.10
2022-12-19T14:04:07.781Z,123.90
2022-12-19T14:06:42.047Z,130.67
2022-12-19T14:11:25.582Z,123.27
2022-12-19T14:13:52.987Z,117.07
2022-12-19T14:15:27.641Z,108.40
2022-12-19T14:17:55.398Z,120.60
2022-12-19T14:22:07.079Z,123.33
2022-12-19T14:23:14.115Z,110.60
2022-12-19T14:28:17.829Z,116.60
2022-12-19T14:28:41.305Z,106.03
2022-12-19T14:31:15.063Z,101.83
2022-12-19T14:34:11.244Z,109.67
2022-12-19T14:36:49.122Z,101.87
2022-12-19T14:39:27.506Z,102.70
2022-12-19T14:42:57.019Z,111.10
2022-12-19T14:54:18.066Z,96.73
2022-12-19T14:54:21.091Z,89.63
2022-12-19T14:54:26.801Z,92.93
2022-12-19T14:56:08.366Z,88.33
2022-12-19T14:57:25.502Z,97.13
2022-12-19T15:00:50.924Z,92.10
2022-12-19T15:03:19.767Z,91.47
2022-12-19T15:05:49.296Z,98.23
2022-12-19T15:09:01.241Z,94.47
2022-12-19T15:11:54.090Z,96.43
2022-12-19T15:14:53.992Z,77.50
2022-12-19T15:17:23.761Z,88.50
2022-12-19T15:19:52.488Z,93.73
2022-12-19T15:22:21.458Z,94.83
2022-12-19T15:24:49.149Z,96.33
2022-12-19T15:27:17.971Z,88.00
2022-12-19T15:29:46.071Z,100.37
2022-12-19T15:32:15.003Z,90.30
2022-12-19T15:34:50.633Z,93.80
2022-12-19T15:37:18.974Z,84.57
2022-12-19T15:39:48.013Z,84.43
2022-12-19T15:42:19.661Z,87.13
2022-12-19T15:44:49.175Z,92.70
2022-12-19T15:47:19.483Z,84.50
2022-12-19T15:49:47.287Z,87.60
2022-12-19T15:52:18.291Z,90.50
2022-12-19T15:54:49.812Z,93.13
2022-12-19T15:57:32.450Z,90.93
2022-12-19T16:00:02.132Z,82.47
2022-12-19T16:05:23.839Z,75.20
2022-12-19T16:07:51.905Z,77.10
2022-12-19T16:10:19.644Z,85.93
2022-12-19T16:12:51.866Z,82.43
2022-12-19T16:15:26.271Z,78.23
2022-12-19T16:17:54.319Z,82.67
2022-12-19T16:20:24.337Z,85.50
2022-12-19T16:22:52.907Z,83.20
2022-12-19T16:25:20.739Z,86.43
2022-12-19T16:27:55.687Z,78.87
2022-12-19T16:30:25.247Z,79.20
2022-12-19T16:32:53.896Z,84.73
2022-12-19T16:35:55.084Z,85.17
2022-12-19T16:38:11.415Z,68.43
2022-12-19T16:40:39.548Z,74.53
2022-12-19T16:43:15.452Z,84.83
2022-12-19T16:45:44.180Z,78.03
2022-12-19T16:48:19.826Z,80.77
2022-12-19T16:50:47.496Z,82.63
2022-12-19T16:53:15.506Z,82.60
2022-12-19T16:55:44.140Z,72.97
2022-12-19T16:58:17.340Z,69.60
2022-12-19T17:00:45.312Z,67.77
2022-12-19T17:03:28.281Z,82.43
2022-12-19T17:05:56.656Z,71.27
2022-12-19T17:08:24.708Z,70.47
2022-12-19T17:10:54.324Z,72.43
2022-12-19T17:13:24.619Z,72.53
2022-12-19T17:15:56.803Z,77.87
2022-12-19T17:18:29.242Z,73.07
2022-12-19T17:20:57.872Z,74.43
2022-12-19T17:23:28.910Z,69.20
2022-12-19T17:25:57.874Z,74.03
2022-12-19T17:28:27.291Z,62.93
2022-12-19T17:30:57.380Z,78.53
2022-12-19T17:33:29.648Z,71.63
2022-12-19T17:35:57.424Z,76.83
2022-12-19T17:38:27.189Z,76.10
2022-12-19T17:40:54.914Z,75.73
2022-12-19T17:43:22.634Z,79.83
2022-12-19T17:45:52.837Z,83.50
2022-12-19T17:48:27.275Z,86.00
2022-12-19T17:50:55.648Z,80.20
2022-12-19T17:53:23.442Z,86.90
2022-12-19T17:55:51.469Z,93.77
2022-12-19T17:58:19.192Z,87.83
2022-12-19T18:00:48.066Z,81.23
2022-12-19T18:03:22.495Z,87.40
2022-12-19T18:05:51.396Z,86.20
2022-12-19T18:08:27.827Z,89.27
2022-12-19T18:10:57.435Z,91.10
2022-12-19T18:13:26.342Z,90.47
2022-12-19T18:15:57.411Z,88.47
2022-12-19T18:18:30.614Z,96.53
2022-12-19T18:20:59.736Z,100.43
2022-12-19T18:23:27.831Z,97.27
2022-12-19T18:26:01.132Z,94.63
2022-12-19T18:28:29.853Z,87.27
2022-12-19T18:31:01.171Z,91.23
2022-12-19T18:33:37.869Z,91.20
2022-12-19T18:36:07.642Z,93.50
2022-12-19T18:38:35.658Z,90.97
2022-12-19T18:41:03.698Z,92.90
2022-12-19T18:43:32.594Z,97.40
2022-12-19T18:46:00.414Z,99.10
2022-12-19T18:48:32.322Z,97.77
2022-12-19T18:51:01.909Z,86.23
2022-12-19T18:53:35.241Z,83.87
2022-12-19T18:56:05.930Z,92.50
2022-12-19T18:58:34.248Z,94.13
2022-12-19T19:01:03.745Z,93.03
2022-12-19T19:03:34.693Z,91.37
2022-12-19T19:06:03.601Z,101.13
2022-12-19T19:08:33.491Z,99.00
2022-12-19T19:11:17.566Z,100.13
2022-12-19T19:13:45.207Z,112.10
2022-12-19T19:16:18.939Z,115.37
2022-12-19T19:18:52.544Z,128.50
2022-12-19T19:21:21.612Z,137.03
2022-12-19T19:23:55.235Z,128.03
2022-12-19T19:26:23.051Z,157.27
2022-12-19T19:28:52.704Z,157.50
2022-12-19T19:31:24.228Z,192.27
2022-12-19T19:33:58.408Z,180.97
2022-12-19T19:36:30.556Z,195.43
2022-12-19T19:38:59.056Z,212.00
2022-12-19T19:41:29.592Z,184.43
2022-12-19T19:43:57.468Z,195.07
2022-12-19T19:46:25.229Z,203.30
2022-12-19T19:48:54.277Z,204.00
2022-12-19T19:51:22.187Z,191.83
2022-12-19T19:53:50.106Z,207.23
2022-12-19T19:56:17.759Z,197.93
2022-12-19T19:58:45.567Z,201.97
2022-12-19T20:01:15.363Z,201.53
2022-12-19T20:03:44.877Z,201.60
2022-12-19T20:06:14.474Z,189.30
2022-12-19T20:08:42.145Z,205.20
2022-12-19T20:11:10.489Z,223.03
2022-12-19T20:13:39.205Z,192.37
2022-12-19T20:16:08.982Z,204.70
2022-12-19T20:18:38.052Z,192.60
2022-12-19T20:21:12.770Z,200.20
2022-12-19T20:23:43.548Z,197.73
2022-12-19T20:26:12.288Z,210.30
2022-12-19T20:28:47.666Z,203.20
2022-12-19T20:31:15.937Z,204.20
2022-12-19T20:33:43.656Z,205.03
2022-12-19T20:36:13.489Z,185.50
2022-12-19T20:38:42.812Z,207.83
2022-12-19T20:41:10.828Z,194.83
2022-12-19T20:43:38.992Z,202.73
2022-12-19T20:46:09.652Z,212.17
2022-12-19T20:48:38.061Z,210.53
2022-12-19T20:51:07.121Z,208.77
2022-12-19T20:53:36.185Z,192.20
2022-12-19T20:56:07.176Z,190.83
2022-12-19T20:58:36.717Z,188.13
2022-12-19T21:01:07.210Z,209.00
2022-12-19T21:03:55.366Z,177.47
2022-12-19T21:06:43.433Z,172.47
2022-12-19T21:09:31.346Z,160.93
2022-12-19T21:12:21.408Z,163.03
2022-12-19T21:15:09.727Z,165.23
2022-12-19T21:17:57.664Z,172.03
2022-12-19T21:20:46.120Z,166.90
2022-12-19T21:23:34.574Z,171.50
2022-12-19T21:26:24.744Z,155.17
2022-12-19T21:29:14.585Z,148.17
2022-12-19T21:32:02.666Z,165.43
2022-12-19T21:34:53.519Z,152.90
2022-12-19T21:37:43.749Z,160.80
2022-12-19T21:40:31.872Z,145.97
2022-12-19T21:43:19.838Z,147.47
2022-12-19T21:46:12.294Z,173.27
2022-12-19T21:49:00.705Z,169.13
2022-12-19T21:51:48.648Z,171.27
2022-12-19T21:54:36.613Z,155.90
2022-12-19T21:57:24.759Z,154.07
2022-12-19T22:00:14.266Z,168.27
2022-12-19T22:03:18.790Z,153.63
2022-12-19T22:06:08.936Z,155.03
2022-12-19T22:08:57.405Z,175.47
2022-12-19T22:11:45.872Z,171.20
2022-12-19T22:14:34.196Z,172.13
2022-12-19T22:17:22.833Z,188.00
2022-12-19T22:20:12.388Z,185.77
2022-12-19T22:23:00.335Z,217.37
2022-12-19T22:25:48.260Z,207.87
2022-12-19T22:28:38.853Z,213.00
2022-12-19T22:31:28.878Z,192.27
2022-12-19T22:34:18.756Z,197.30
2022-12-19T22:37:08.102Z,198.13
2022-12-19T22:39:59.895Z,189.77
2022-12-19T22:42:47.804Z,182.20
2022-12-19T22:45:35.766Z,188.70
2022-12-19T22:48:23.832Z,185.33
2022-12-19T22:51:12.414Z,211.60
2022-12-19T22:54:02.468Z,201.47
2022-12-19T22:56:51.590Z,194.93
2022-12-19T22:59:40.383Z,197.80
2022-12-19T23:02:29.164Z,195.67
2022-12-19T23:05:17.583Z,175.33
2022-12-19T23:08:06.006Z,195.73
2022-12-19T23:10:55.535Z,194.53
2022-12-19T23:13:44.598Z,182.77
2022-12-19T23:16:32.721Z,167.33
2022-12-19T23:19:20.832Z,171.70
2022-12-19T23:22:08.856Z,182.53
2022-12-19T23:24:56.827Z,187.00
2022-12-19T23:27:47.188Z,177.23
2022-12-19T23:30:35.151Z,187.97
2022-12-19T23:33:23.096Z,182.10
2022-12-19T23:36:11.188Z,187.27
2022-12-19T23:38:59.162Z,190.43
2022-12-19T23:41:47.112Z,185.80
2022-12-19T23:44:36.609Z,176.03
2022-12-19T23:47:24.553Z,177.53
2022-12-19T23:50:12.706Z,195.47
2022-12-19T23:53:00.661Z,195.17
2022-12-19T23:55:50.390Z,181.37
2022-12-19T23:58:38.446Z,192.47
